sensor_id;sensor_type;location;lat;lon;timestamp;pressure;altitude;pressure_sealevel;temperature
74449;BMP280;62878;51.026;4.472;2022-12-07T00:01:13;-5925.66;;;13.52
74449;BMP280;62878;51.026;4.472;2022-12-07T00:03:41;-5918.06;;;13.06
74449;BMP280;62878;51.026;4.472;2022-12-07T00:06:08;-5925.75;;;13.52
74449;BMP280;62878;51.026;4.472;2022-12-07T00:08:35;-5923.63;;;13.39
74449;BMP280;62878;51.026;4.472;2022-12-07T00:13:37;-5925.00;;;13.48
74449;BMP280;62878;51.026;4.472;2022-12-07T00:16:06;-5924.66;;;13.46
74449;BMP280;62878;51.026;4.472;2022-12-07T00:18:32;-5925.16;;;13.49
74449;BMP280;62878;51.026;4.472;2022-12-07T00:21:12;-5924.66;;;13.46
74449;BMP280;62878;51.026;4.472;2022-12-07T00:23:38;-5923.97;;;13.42
74449;BMP280;62878;51.026;4.472;2022-12-07T00:26:05;-5924.66;;;13.46
74449;BMP280;62878;51.026;4.472;2022-12-07T00:28:30;-5920.34;;;13.20
74449;BMP280;62878;51.026;4.472;2022-12-07T00:31:04;-5923.38;;;13.38
74449;BMP280;62878;51.026;4.472;2022-12-07T00:33:30;-5923.91;;;13.41
74449;BMP280;62878;51.026;4.472;2022-12-07T00:35:57;-5924.47;;;13.45
74449;BMP280;62878;51.026;4.472;2022-12-07T00:38:23;-5924.22;;;13.43
74449;BMP280;62878;51.026;4.472;2022-12-07T00:41:00;-5923.81;;;13.41
74449;BMP280;62878;51.026;4.472;2022-12-07T00:43:26;-5923.38;;;13.38
74449;BMP280;62878;51.026;4.472;2022-12-07T00:45:52;-5922.97;;;13.35
74449;BMP280;62878;51.026;4.472;2022-12-07T00:48:18;-5923.47;;;13.38
74449;BMP280;62878;51.026;4.472;2022-12-07T00:50:43;-5918.06;;;13.06
74449;BMP280;62878;51.026;4.472;2022-12-07T00:53:10;-5923.47;;;13.38
74449;BMP280;62878;51.026;4.472;2022-12-07T00:55:36;-5922.97;;;13.35
74449;BMP280;62878;51.026;4.472;2022-12-07T00:58:02;-5922.88;;;13.35
74449;BMP280;62878;51.026;4.472;2022-12-07T01:00:28;-5922.38;;;13.32
74449;BMP280;62878;51.026;4.472;2022-12-07T01:02:53;-5922.47;;;13.32
74449;BMP280;62878;51.026;4.472;2022-12-07T01:05:19;-5922.72;;;13.34
74449;BMP280;62878;51.026;4.472;2022-12-07T01:07:44;-5921.63;;;13.27
74449;BMP280;62878;51.026;4.472;2022-12-07T01:10:11;-5922.38;;;13.32
74449;BMP280;62878;51.026;4.472;2022-12-07T01:12:37;-5911.41;;;12.66
74449;BMP280;62878;51.026;4.472;2022-12-07T01:15:05;-5920.94;;;13.23
74449;BMP280;62878;51.026;4.472;2022-12-07T01:17:31;-5920.44;;;13.20
74449;BMP280;62878;51.026;4.472;2022-12-07T01:19:56;-5921.88;;;13.29
74449;BMP280;62878;51.026;4.472;2022-12-07T01:22:21;-5921.63;;;13.27
74449;BMP280;62878;51.026;4.472;2022-12-07T01:24:47;-5918.41;;;13.08
74449;BMP280;62878;51.026;4.472;2022-12-07T01:27:13;-5921.63;;;13.27
74449;BMP280;62878;51.026;4.472;2022-12-07T01:29:38;-5922.03;;;13.30
74449;BMP280;62878;51.026;4.472;2022-12-07T01:32:05;-5921.63;;;13.27
74449;BMP280;62878;51.026;4.472;2022-12-07T01:34:31;-5920.44;;;13.20
74449;BMP280;62878;51.026;4.472;2022-12-07T01:36:56;-5920.53;;;13.21
74449;BMP280;62878;51.026;4.472;2022-12-07T01:39:22;-5921.44;;;13.26
74449;BMP280;62878;51.026;4.472;2022-12-07T01:41:48;-5921.53;;;13.27
74449;BMP280;62878;51.026;4.472;2022-12-07T01:44:27;-5922.13;;;13.30
74449;BMP280;62878;51.026;4.472;2022-12-07T01:47:04;-5920.94;;;13.23
74449;BMP280;62878;51.026;4.472;2022-12-07T01:49:37;-5921.03;;;13.24
74449;BMP280;62878;51.026;4.472;2022-12-07T01:54:53;-5919.50;;;13.15
74449;BMP280;62878;51.026;4.472;2022-12-07T01:57:20;-5918.25;;;13.07
74449;BMP280;62878;51.026;4.472;2022-12-07T01:59:47;-5921.13;;;13.24
74449;BMP280;62878;51.026;4.472;2022-12-07T02:02:23;-5920.94;;;13.23
74449;BMP280;62878;51.026;4.472;2022-12-07T02:04:52;-5920.94;;;13.23
74449;BMP280;62878;51.026;4.472;2022-12-07T02:07:19;-5920.59;;;13.21
74449;BMP280;62878;51.026;4.472;2022-12-07T02:09:45;-5908.22;;;12.47
74449;BMP280;62878;51.026;4.472;2022-12-07T02:12:10;-5918.75;;;13.10
74449;BMP280;62878;51.026;4.472;2022-12-07T02:14:35;-5920.44;;;13.20
74449;BMP280;62878;51.026;4.472;2022-12-07T02:17:25;-5920.34;;;13.20
74449;BMP280;62878;51.026;4.472;2022-12-07T02:20:06;-5920.28;;;13.19
74449;BMP280;62878;51.026;4.472;2022-12-07T02:28:34;-5920.19;;;13.19
74449;BMP280;62878;51.026;4.472;2022-12-07T02:31:18;-5920.28;;;13.19
74449;BMP280;62878;51.026;4.472;2022-12-07T02:33:50;-5918.59;;;13.09
74449;BMP280;62878;51.026;4.472;2022-12-07T02:36:25;-5919.94;;;13.17
74449;BMP280;62878;51.026;4.472;2022-12-07T02:38:55;-5919.94;;;13.17
74449;BMP280;62878;51.026;4.472;2022-12-07T02:41:49;-5919.59;;;13.15
74449;BMP280;62878;51.026;4.472;2022-12-07T02:44:23;-5919.59;;;13.15
74449;BMP280;62878;51.026;4.472;2022-12-07T02:46:53;-5919.75;;;13.16
74449;BMP280;62878;51.026;4.472;2022-12-07T02:49:22;-5919.16;;;13.13
74449;BMP280;62878;51.026;4.472;2022-12-07T02:51:48;-5916.47;;;12.97
74449;BMP280;62878;51.026;4.472;2022-12-07T02:54:17;-5919.59;;;13.15
74449;BMP280;62878;51.026;4.472;2022-12-07T03:02:39;-5919.34;;;13.14
74449;BMP280;62878;51.026;4.472;2022-12-07T03:16:23;-5918.50;;;13.09
74449;BMP280;62878;51.026;4.472;2022-12-07T03:18:56;-5916.06;;;12.94
74449;BMP280;62878;51.026;4.472;2022-12-07T03:21:26;-5914.47;;;12.84
74449;BMP280;62878;51.026;4.472;2022-12-07T03:23:56;-5917.56;;;13.03
74449;BMP280;62878;51.026;4.472;2022-12-07T03:26:25;-5917.31;;;13.02
74449;BMP280;62878;51.026;4.472;2022-12-07T03:28:55;-5918.25;;;13.07
74449;BMP280;62878;51.026;4.472;2022-12-07T03:31:26;-5918.06;;;13.06
74449;BMP280;62878;51.026;4.472;2022-12-07T03:41:39;-5917.75;;;13.04
74449;BMP280;62878;51.026;4.472;2022-12-07T03:44:06;-5914.88;;;12.87
74449;BMP280;62878;51.026;4.472;2022-12-07T03:49:46;-5914.69;;;12.86
74449;BMP280;62878;51.026;4.472;2022-12-07T03:52:40;-5917.56;;;13.03
74449;BMP280;62878;51.026;4.472;2022-12-07T03:57:39;-5917.22;;;13.01
74449;BMP280;62878;51.026;4.472;2022-12-07T04:00:07;-5917.50;;;13.03
74449;BMP280;62878;51.026;4.472;2022-12-07T04:02:33;-5916.97;;;13.00
74449;BMP280;62878;51.026;4.472;2022-12-07T04:04:58;-5913.78;;;12.80
74449;BMP280;62878;51.026;4.472;2022-12-07T04:07:24;-5916.97;;;13.00
74449;BMP280;62878;51.026;4.472;2022-12-07T04:09:50;-5916.81;;;12.99
74449;BMP280;62878;51.026;4.472;2022-12-07T04:12:16;-5916.06;;;12.94
74449;BMP280;62878;51.026;4.472;2022-12-07T04:14:41;-5916.47;;;12.97
74449;BMP280;62878;51.026;4.472;2022-12-07T04:17:08;-5916.56;;;12.97
74449;BMP280;62878;51.026;4.472;2022-12-07T04:19:33;-5916.72;;;12.98
74449;BMP280;62878;51.026;4.472;2022-12-07T04:22:01;-5915.56;;;12.91
74449;BMP280;62878;51.026;4.472;2022-12-07T04:24:26;-5916.47;;;12.97
74449;BMP280;62878;51.026;4.472;2022-12-07T04:26:52;-5914.97;;;12.87
74449;BMP280;62878;51.026;4.472;2022-12-07T04:29:17;-5915.88;;;12.93
74449;BMP280;62878;51.026;4.472;2022-12-07T04:31:44;-5916.22;;;12.95
74449;BMP280;62878;51.026;4.472;2022-12-07T04:34:09;-5914.63;;;12.85
74449;BMP280;62878;51.026;4.472;2022-12-07T04:36:35;-5915.56;;;12.91
74449;BMP280;62878;51.026;4.472;2022-12-07T04:39:01;-5915.22;;;12.89
74449;BMP280;62878;51.026;4.472;2022-12-07T04:41:27;-5915.28;;;12.89
74449;BMP280;62878;51.026;4.472;2022-12-07T04:43:55;-5915.13;;;12.88
74449;BMP280;62878;51.026;4.472;2022-12-07T04:46:22;-5915.63;;;12.91
74449;BMP280;62878;51.026;4.472;2022-12-07T04:48:48;-5915.13;;;12.88
74449;BMP280;62878;51.026;4.472;2022-12-07T04:51:19;-5915.13;;;12.88
74449;BMP280;62878;51.026;4.472;2022-12-07T04:53:45;-5913.53;;;12.79
74449;BMP280;62878;51.026;4.472;2022-12-07T04:56:10;-5914.78;;;12.86
74449;BMP280;62878;51.026;4.472;2022-12-07T04:58:35;-5914.88;;;12.87
74449;BMP280;62878;51.026;4.472;2022-12-07T05:01:00;-5915.03;;;12.88
74449;BMP280;62878;51.026;4.472;2022-12-07T05:03:26;-5914.28;;;12.83
74449;BMP280;62878;51.026;4.472;2022-12-07T05:05:51;-5911.25;;;12.65
74449;BMP280;62878;51.026;4.472;2022-12-07T05:08:17;-5913.88;;;12.81
74449;BMP280;62878;51.026;4.472;2022-12-07T05:10:43;-5914.78;;;12.86
74449;BMP280;62878;51.026;4.472;2022-12-07T05:13:08;-5914.38;;;12.84
74449;BMP280;62878;51.026;4.472;2022-12-07T05:15:34;-5914.47;;;12.84
74449;BMP280;62878;51.026;4.472;2022-12-07T05:17:59;-5913.94;;;12.81
74449;BMP280;62878;51.026;4.472;2022-12-07T05:20:25;-5912.94;;;12.75
74449;BMP280;62878;51.026;4.472;2022-12-07T05:22:50;-5914.19;;;12.83
74449;BMP280;62878;51.026;4.472;2022-12-07T05:25:16;-5912.09;;;12.70
74449;BMP280;62878;51.026;4.472;2022-12-07T05:27:41;-5913.88;;;12.81
74449;BMP280;62878;51.026;4.472;2022-12-07T05:30:07;-5910.56;;;12.61
74449;BMP280;62878;51.026;4.472;2022-12-07T05:32:32;-5913.59;;;12.79
74449;BMP280;62878;51.026;4.472;2022-12-07T05:34:58;-5913.59;;;12.79
74449;BMP280;62878;51.026;4.472;2022-12-07T05:37:23;-5913.53;;;12.79
74449;BMP280;62878;51.026;4.472;2022-12-07T05:39:48;-5913.69;;;12.80
74449;BMP280;62878;51.026;4.472;2022-12-07T05:42:14;-5912.00;;;12.70
74449;BMP280;62878;51.026;4.472;2022-12-07T05:44:41;-5913.59;;;12.79
74449;BMP280;62878;51.026;4.472;2022-12-07T05:47:07;-5913.19;;;12.77
74449;BMP280;62878;51.026;4.472;2022-12-07T05:49:32;-5913.19;;;12.77
74449;BMP280;62878;51.026;4.472;2022-12-07T05:51:58;-5912.69;;;12.74
74449;BMP280;62878;51.026;4.472;2022-12-07T05:54:23;-5912.84;;;12.75
74449;BMP280;62878;51.026;4.472;2022-12-07T05:56:49;-5912.78;;;12.74
74449;BMP280;62878;51.026;4.472;2022-12-07T05:59:14;-5911.41;;;12.66
74449;BMP280;62878;51.026;4.472;2022-12-07T06:04:16;-5912.69;;;12.74
74449;BMP280;62878;51.026;4.472;2022-12-07T06:06:41;-5912.78;;;12.74
74449;BMP280;62878;51.026;4.472;2022-12-07T06:09:07;-5912.69;;;12.74
74449;BMP280;62878;51.026;4.472;2022-12-07T06:11:32;-5910.66;;;12.62
74449;BMP280;62878;51.026;4.472;2022-12-07T06:14:16;-5912.50;;;12.73
74449;BMP280;62878;51.026;4.472;2022-12-07T06:16:41;-5910.50;;;12.61
74449;BMP280;62878;51.026;4.472;2022-12-07T06:19:07;-5913.03;;;12.76
74449;BMP280;62878;51.026;4.472;2022-12-07T06:21:32;-5912.50;;;12.73
74449;BMP280;62878;51.026;4.472;2022-12-07T06:23:58;-5911.94;;;12.69
74449;BMP280;62878;51.026;4.472;2022-12-07T06:26:23;-5910.50;;;12.61
74449;BMP280;62878;51.026;4.472;2022-12-07T06:28:48;-5912.00;;;12.70
74449;BMP280;62878;51.026;4.472;2022-12-07T06:31:14;-5910.91;;;12.63
74449;BMP280;62878;51.026;4.472;2022-12-07T06:33:40;-5906.09;;;12.34
74449;BMP280;62878;51.026;4.472;2022-12-07T06:36:05;-5909.66;;;12.56
74449;BMP280;62878;51.026;4.472;2022-12-07T06:38:30;-5909.81;;;12.57
74449;BMP280;62878;51.026;4.472;2022-12-07T06:40:56;-5912.00;;;12.70
74449;BMP280;62878;51.026;4.472;2022-12-07T06:43:21;-5911.84;;;12.69
74449;BMP280;62878;51.026;4.472;2022-12-07T06:45:47;-5911.75;;;12.68
74449;BMP280;62878;51.026;4.472;2022-12-07T06:48:12;-5911.66;;;12.68
74449;BMP280;62878;51.026;4.472;2022-12-07T06:50:37;-5911.84;;;12.69
74449;BMP280;62878;51.026;4.472;2022-12-07T06:53:02;-5911.34;;;12.66
74449;BMP280;62878;51.026;4.472;2022-12-07T06:55:29;-5911.34;;;12.66
74449;BMP280;62878;51.026;4.472;2022-12-07T06:57:54;-5906.69;;;12.38
74449;BMP280;62878;51.026;4.472;2022-12-07T07:00:19;-5911.16;;;12.65
74449;BMP280;62878;51.026;4.472;2022-12-07T07:02:45;-5911.09;;;12.64
74449;BMP280;62878;51.026;4.472;2022-12-07T07:05:12;-5911.50;;;12.67
74449;BMP280;62878;51.026;4.472;2022-12-07T07:07:37;-5911.41;;;12.66
74449;BMP280;62878;51.026;4.472;2022-12-07T07:10:02;-5910.00;;;12.58
74449;BMP280;62878;51.026;4.472;2022-12-07T07:12:28;-5910.06;;;12.58
74449;BMP280;62878;51.026;4.472;2022-12-07T07:14:53;-5911.66;;;12.68
74449;BMP280;62878;51.026;4.472;2022-12-07T07:17:19;-5908.03;;;12.46
74449;BMP280;62878;51.026;4.472;2022-12-07T07:19:44;-5909.91;;;12.57
74449;BMP280;62878;51.026;4.472;2022-12-07T07:22:09;-5905.78;;;12.32
74449;BMP280;62878;51.026;4.472;2022-12-07T07:24:35;-5910.84;;;12.63
74449;BMP280;62878;51.026;4.472;2022-12-07T07:27:00;-5910.84;;;12.63
74449;BMP280;62878;51.026;4.472;2022-12-07T07:29:26;-5910.66;;;12.62
74449;BMP280;62878;51.026;4.472;2022-12-07T07:31:51;-5905.00;;;12.28
74449;BMP280;62878;51.026;4.472;2022-12-07T07:34:18;-5910.31;;;12.60
74449;BMP280;62878;51.026;4.472;2022-12-07T07:36:43;-5905.59;;;12.31
74449;BMP280;62878;51.026;4.472;2022-12-07T07:39:09;-5909.91;;;12.57
74449;BMP280;62878;51.026;4.472;2022-12-07T07:41:37;-5908.81;;;12.51
74449;BMP280;62878;51.026;4.472;2022-12-07T07:44:03;-5910.06;;;12.58
74449;BMP280;62878;51.026;4.472;2022-12-07T07:46:28;-5909.81;;;12.57
74449;BMP280;62878;51.026;4.472;2022-12-07T07:48:53;-5909.31;;;12.54
74449;BMP280;62878;51.026;4.472;2022-12-07T07:51:19;-5909.56;;;12.55
74449;BMP280;62878;51.026;4.472;2022-12-07T07:53:44;-5909.56;;;12.55
74449;BMP280;62878;51.026;4.472;2022-12-07T07:56:09;-5909.66;;;12.56
74449;BMP280;62878;51.026;4.472;2022-12-07T07:58:35;-5909.91;;;12.57
74449;BMP280;62878;51.026;4.472;2022-12-07T08:01:07;-5909.41;;;12.54
74449;BMP280;62878;51.026;4.472;2022-12-07T08:03:33;-5909.56;;;12.55
74449;BMP280;62878;51.026;4.472;2022-12-07T08:05:58;-5909.47;;;12.55
74449;BMP280;62878;51.026;4.472;2022-12-07T08:08:24;-5908.03;;;12.46
74449;BMP280;62878;51.026;4.472;2022-12-07T08:10:49;-5904.69;;;12.26
74449;BMP280;62878;51.026;4.472;2022-12-07T08:13:16;-5908.63;;;12.50
74449;BMP280;62878;51.026;4.472;2022-12-07T08:15:45;-5908.97;;;12.52
74449;BMP280;62878;51.026;4.472;2022-12-07T08:18:11;-5908.47;;;12.49
74449;BMP280;62878;51.026;4.472;2022-12-07T08:20:38;-5909.72;;;12.56
74449;BMP280;62878;51.026;4.472;2022-12-07T08:23:04;-5908.81;;;12.51
74449;BMP280;62878;51.026;4.472;2022-12-07T08:25:30;-5908.72;;;12.50
74449;BMP280;62878;51.026;4.472;2022-12-07T08:27:55;-5907.38;;;12.42
74449;BMP280;62878;51.026;4.472;2022-12-07T08:30:21;-5907.53;;;12.43
74449;BMP280;62878;51.026;4.472;2022-12-07T08:32:47;-5908.97;;;12.52
74449;BMP280;62878;51.026;4.472;2022-12-07T08:35:13;-5907.63;;;12.43
74449;BMP280;62878;51.026;4.472;2022-12-07T08:37:39;-5908.47;;;12.49
74449;BMP280;62878;51.026;4.472;2022-12-07T08:40:06;-5908.56;;;12.49
74449;BMP280;62878;51.026;4.472;2022-12-07T08:42:31;-5908.81;;;12.51
74449;BMP280;62878;51.026;4.472;2022-12-07T08:45:08;-5904.34;;;12.24
74449;BMP280;62878;51.026;4.472;2022-12-07T08:47:40;-5908.47;;;12.49
74449;BMP280;62878;51.026;4.472;2022-12-07T08:50:07;-5908.47;;;12.49
74449;BMP280;62878;51.026;4.472;2022-12-07T08:52:34;-5909.66;;;12.56
74449;BMP280;62878;51.026;4.472;2022-12-07T08:55:01;-5908.81;;;12.51
74449;BMP280;62878;51.026;4.472;2022-12-07T08:57:28;-5908.88;;;12.51
74449;BMP280;62878;51.026;4.472;2022-12-07T08:59:53;-5883.75;;;11.00
74449;BMP280;62878;51.026;4.472;2022-12-07T09:02:19;-5886.53;;;11.17
74449;BMP280;62878;51.026;4.472;2022-12-07T09:04:44;-5893.38;;;11.58
74449;BMP280;62878;51.026;4.472;2022-12-07T09:07:10;-5894.81;;;11.67
74449;BMP280;62878;51.026;4.472;2022-12-07T09:09:35;-5899.69;;;11.96
74449;BMP280;62878;51.026;4.472;2022-12-07T09:12:00;-5896.84;;;11.79
74449;BMP280;62878;51.026;4.472;2022-12-07T09:14:26;-5901.72;;;12.08
74449;BMP280;62878;51.026;4.472;2022-12-07T09:16:52;-5902.47;;;12.13
74449;BMP280;62878;51.026;4.472;2022-12-07T09:19:17;-5901.72;;;12.08
74449;BMP280;62878;51.026;4.472;2022-12-07T09:21:42;-5903.06;;;12.16
74449;BMP280;62878;51.026;4.472;2022-12-07T09:24:08;-5903.41;;;12.18
74449;BMP280;62878;51.026;4.472;2022-12-07T09:26:34;-5896.16;;;11.75
74449;BMP280;62878;51.026;4.472;2022-12-07T09:29:01;-5903.41;;;12.18
74449;BMP280;62878;51.026;4.472;2022-12-07T09:31:26;-5902.41;;;12.12
74449;BMP280;62878;51.026;4.472;2022-12-07T09:33:57;-5903.91;;;12.21
74449;BMP280;62878;51.026;4.472;2022-12-07T09:36:23;-5901.47;;;12.07
74449;BMP280;62878;51.026;4.472;2022-12-07T09:38:48;-5903.75;;;12.20
74449;BMP280;62878;51.026;4.472;2022-12-07T09:41:13;-5895.75;;;11.72
74449;BMP280;62878;51.026;4.472;2022-12-07T09:43:40;-5903.41;;;12.18
74449;BMP280;62878;51.026;4.472;2022-12-07T09:46:11;-5904.41;;;12.24
74449;BMP280;62878;51.026;4.472;2022-12-07T09:48:39;-5904.75;;;12.26
74449;BMP280;62878;51.026;4.472;2022-12-07T09:51:18;-5904.34;;;12.24
74449;BMP280;62878;51.026;4.472;2022-12-07T09:53:45;-5904.69;;;12.26
74449;BMP280;62878;51.026;4.472;2022-12-07T09:56:14;-5904.16;;;12.23
74449;BMP280;62878;51.026;4.472;2022-12-07T09:58:41;-5904.25;;;12.23
74449;BMP280;62878;51.026;4.472;2022-12-07T10:03:33;-5904.50;;;12.25
74449;BMP280;62878;51.026;4.472;2022-12-07T10:05:58;-5902.91;;;12.15
74449;BMP280;62878;51.026;4.472;2022-12-07T10:08:24;-5904.09;;;12.22
74449;BMP280;62878;51.026;4.472;2022-12-07T10:10:55;-5903.31;;;12.18
74449;BMP280;62878;51.026;4.472;2022-12-07T10:13:48;-5905.50;;;12.31
74449;BMP280;62878;51.026;4.472;2022-12-07T10:18:50;-5905.59;;;12.31
74449;BMP280;62878;51.026;4.472;2022-12-07T10:21:19;-5908.97;;;12.52
74449;BMP280;62878;51.026;4.472;2022-12-07T10:27:00;-5911.50;;;12.67
74449;BMP280;62878;51.026;4.472;2022-12-07T10:29:31;-5912.34;;;12.72
74449;BMP280;62878;51.026;4.472;2022-12-07T10:31:58;-5912.69;;;12.74
74449;BMP280;62878;51.026;4.472;2022-12-07T10:34:32;-5913.19;;;12.77
74449;BMP280;62878;51.026;4.472;2022-12-07T10:37:13;-5914.19;;;12.83
74449;BMP280;62878;51.026;4.472;2022-12-07T10:44:41;-5914.03;;;12.82
74449;BMP280;62878;51.026;4.472;2022-12-07T11:00:24;-5891.44;;;11.46
74449;BMP280;62878;51.026;4.472;2022-12-07T11:05:56;-5897.50;;;11.83
74449;BMP280;62878;51.026;4.472;2022-12-07T11:08:55;-5902.75;;;12.14
74449;BMP280;62878;51.026;4.472;2022-12-07T11:11:42;-5903.41;;;12.18
74449;BMP280;62878;51.026;4.472;2022-12-07T11:14:29;-5907.78;;;12.44
74449;BMP280;62878;51.026;4.472;2022-12-07T11:17:15;-5903.56;;;12.19
74449;BMP280;62878;51.026;4.472;2022-12-07T11:23:12;-5909.31;;;12.54
74449;BMP280;62878;51.026;4.472;2022-12-07T11:25:54;-5905.34;;;12.30
74449;BMP280;62878;51.026;4.472;2022-12-07T11:28:27;-5910.41;;;12.60
74449;BMP280;62878;51.026;4.472;2022-12-07T11:31:12;-5909.06;;;12.52
74449;BMP280;62878;51.026;4.472;2022-12-07T11:34:00;-5906.94;;;12.39
74449;BMP280;62878;51.026;4.472;2022-12-07T11:37:03;-5911.84;;;12.69
74449;BMP280;62878;51.026;4.472;2022-12-07T11:41:49;-5907.78;;;12.44
74449;BMP280;62878;51.026;4.472;2022-12-07T11:45:10;-5912.50;;;12.73
74449;BMP280;62878;51.026;4.472;2022-12-07T11:47:45;-5912.50;;;12.73
74449;BMP280;62878;51.026;4.472;2022-12-07T11:55:50;-5907.63;;;12.43
74449;BMP280;62878;51.026;4.472;2022-12-07T12:03:48;-5914.19;;;12.83
74449;BMP280;62878;51.026;4.472;2022-12-07T12:06:14;-5909.31;;;12.54
74449;BMP280;62878;51.026;4.472;2022-12-07T12:08:44;-5910.75;;;12.62
74449;BMP280;62878;51.026;4.472;2022-12-07T12:17:47;-5915.28;;;12.89
74449;BMP280;62878;51.026;4.472;2022-12-07T12:20:27;-5916.06;;;12.94
74449;BMP280;62878;51.026;4.472;2022-12-07T12:25:54;-5912.34;;;12.72
74449;BMP280;62878;51.026;4.472;2022-12-07T12:28:38;-5916.22;;;12.95
74449;BMP280;62878;51.026;4.472;2022-12-07T12:31:29;-5912.19;;;12.71
74449;BMP280;62878;51.026;4.472;2022-12-07T12:33:58;-5907.78;;;12.44
74449;BMP280;62878;51.026;4.472;2022-12-07T12:36:42;-5896.25;;;11.75
74449;BMP280;62878;51.026;4.472;2022-12-07T12:47:04;-5888.81;;;11.31
74449;BMP280;62878;51.026;4.472;2022-12-07T12:49:36;-5889.41;;;11.34
74449;BMP280;62878;51.026;4.472;2022-12-07T12:57:27;-5882.66;;;10.94
74449;BMP280;62878;51.026;4.472;2022-12-07T13:15:54;-5933.59;;;13.99
74449;BMP280;62878;51.026;4.472;2022-12-07T13:20:57;-5938.56;;;14.29
74449;BMP280;62878;51.026;4.472;2022-12-07T13:26:36;-5941.50;;;14.47
74449;BMP280;62878;51.026;4.472;2022-12-07T13:34:33;-5943.28;;;14.57
74449;BMP280;62878;51.026;4.472;2022-12-07T13:37:01;-5941.50;;;14.47
74449;BMP280;62878;51.026;4.472;2022-12-07T13:39:28;-5942.84;;;14.55
74449;BMP280;62878;51.026;4.472;2022-12-07T13:41:58;-5942.75;;;14.54
74449;BMP280;62878;51.026;4.472;2022-12-07T13:44:26;-5944.28;;;14.63
74449;BMP280;62878;51.026;4.472;2022-12-07T13:49:36;-5946.31;;;14.75
74449;BMP280;62878;51.026;4.472;2022-12-07T13:52:15;-5947.16;;;14.80
74449;BMP280;62878;51.026;4.472;2022-12-07T13:54:48;-5948.16;;;14.87
74449;BMP280;62878;51.026;4.472;2022-12-07T13:57:15;-5947.72;;;14.84
74449;BMP280;62878;51.026;4.472;2022-12-07T13:59:41;-5947.72;;;14.84
74449;BMP280;62878;51.026;4.472;2022-12-07T14:02:20;-5946.56;;;14.77
74449;BMP280;62878;51.026;4.472;2022-12-07T14:04:48;-5947.97;;;14.85
74449;BMP280;62878;51.026;4.472;2022-12-07T14:07:44;-5937.28;;;14.21
74449;BMP280;62878;51.026;4.472;2022-12-07T14:10:25;-5931.22;;;13.85
74449;BMP280;62878;51.026;4.472;2022-12-07T14:12:51;-5941.16;;;14.45
74449;BMP280;62878;51.026;4.472;2022-12-07T14:15:22;-5943.84;;;14.61
74449;BMP280;62878;51.026;4.472;2022-12-07T14:17:52;-5945.22;;;14.69
74449;BMP280;62878;51.026;4.472;2022-12-07T14:20:38;-5945.38;;;14.70
74449;BMP280;62878;51.026;4.472;2022-12-07T14:23:19;-5947.22;;;14.81
74449;BMP280;62878;51.026;4.472;2022-12-07T14:25:47;-5947.06;;;14.80
74449;BMP280;62878;51.026;4.472;2022-12-07T14:28:32;-5946.88;;;14.79
74449;BMP280;62878;51.026;4.472;2022-12-07T14:30:58;-5946.88;;;14.79
74449;BMP280;62878;51.026;4.472;2022-12-07T14:33:25;-5947.06;;;14.80
74449;BMP280;62878;51.026;4.472;2022-12-07T14:35:51;-5946.06;;;14.74
74449;BMP280;62878;51.026;4.472;2022-12-07T14:38:24;-5947.56;;;14.83
74449;BMP280;62878;51.026;4.472;2022-12-07T14:40:50;-5949.34;;;14.94
74449;BMP280;62878;51.026;4.472;2022-12-07T14:43:17;-5948.31;;;14.88
74449;BMP280;62878;51.026;4.472;2022-12-07T14:45:43;-5944.63;;;14.65
74449;BMP280;62878;51.026;4.472;2022-12-07T14:48:14;-5949.16;;;14.93
74449;BMP280;62878;51.026;4.472;2022-12-07T14:50:49;-5947.56;;;14.83
74449;BMP280;62878;51.026;4.472;2022-12-07T14:53:18;-5948.06;;;14.86
74449;BMP280;62878;51.026;4.472;2022-12-07T14:55:45;-5948.25;;;14.87
74449;BMP280;62878;51.026;4.472;2022-12-07T14:58:15;-5948.56;;;14.89
74449;BMP280;62878;51.026;4.472;2022-12-07T15:00:40;-5948.16;;;14.87
74449;BMP280;62878;51.026;4.472;2022-12-07T15:03:06;-5948.91;;;14.91
74449;BMP280;62878;51.026;4.472;2022-12-07T15:05:34;-5947.41;;;14.82
74449;BMP280;62878;51.026;4.472;2022-12-07T15:08:00;-5948.91;;;14.91
74449;BMP280;62878;51.026;4.472;2022-12-07T15:10:29;-5949.09;;;14.92
74449;BMP280;62878;51.026;4.472;2022-12-07T15:12:57;-5943.19;;;14.57
74449;BMP280;62878;51.026;4.472;2022-12-07T15:15:51;-5947.81;;;14.84
74449;BMP280;62878;51.026;4.472;2022-12-07T15:18:18;-5949.16;;;14.93
74449;BMP280;62878;51.026;4.472;2022-12-07T15:20:43;-5950.09;;;14.98
74449;BMP280;62878;51.026;4.472;2022-12-07T15:23:10;-5949.66;;;14.96
74449;BMP280;62878;51.026;4.472;2022-12-07T15:25:35;-5949.09;;;14.92
74449;BMP280;62878;51.026;4.472;2022-12-07T15:28:01;-5948.91;;;14.91
74449;BMP280;62878;51.026;4.472;2022-12-07T15:30:26;-5947.81;;;14.84
74449;BMP280;62878;51.026;4.472;2022-12-07T15:32:52;-5948.50;;;14.89
74449;BMP280;62878;51.026;4.472;2022-12-07T15:35:19;-5948.56;;;14.89
74449;BMP280;62878;51.026;4.472;2022-12-07T15:37:44;-5948.75;;;14.90
74449;BMP280;62878;51.026;4.472;2022-12-07T15:40:11;-5949.75;;;14.96
74449;BMP280;62878;51.026;4.472;2022-12-07T15:42:36;-5949.41;;;14.94
74449;BMP280;62878;51.026;4.472;2022-12-07T15:45:03;-5945.38;;;14.70
74449;BMP280;62878;51.026;4.472;2022-12-07T15:47:29;-5949.25;;;14.93
74449;BMP280;62878;51.026;4.472;2022-12-07T15:49:55;-5949.09;;;14.92
74449;BMP280;62878;51.026;4.472;2022-12-07T15:52:20;-5948.81;;;14.91
74449;BMP280;62878;51.026;4.472;2022-12-07T15:54:46;-5946.88;;;14.79
74449;BMP280;62878;51.026;4.472;2022-12-07T15:57:13;-5948.91;;;14.91
74449;BMP280;62878;51.026;4.472;2022-12-07T15:59:38;-5945.88;;;14.73
74449;BMP280;62878;51.026;4.472;2022-12-07T16:02:04;-5949.41;;;14.94
74449;BMP280;62878;51.026;4.472;2022-12-07T16:04:29;-5947.31;;;14.81
74449;BMP280;62878;51.026;4.472;2022-12-07T16:06:55;-5945.53;;;14.71
74449;BMP280;62878;51.026;4.472;2022-12-07T16:09:20;-5948.25;;;14.87
74449;BMP280;62878;51.026;4.472;2022-12-07T16:11:47;-5947.81;;;14.84
74449;BMP280;62878;51.026;4.472;2022-12-07T16:14:12;-5945.78;;;14.72
74449;BMP280;62878;51.026;4.472;2022-12-07T16:16:38;-5949.25;;;14.93
74449;BMP280;62878;51.026;4.472;2022-12-07T16:19:06;-5944.63;;;14.65
74449;BMP280;62878;51.026;4.472;2022-12-07T16:21:33;-5950.25;;;14.99
74449;BMP280;62878;51.026;4.472;2022-12-07T16:23:58;-5946.47;;;14.76
74449;BMP280;62878;51.026;4.472;2022-12-07T16:26:24;-5946.56;;;14.77
74449;BMP280;62878;51.026;4.472;2022-12-07T16:28:51;-5949.16;;;14.93
74449;BMP280;62878;51.026;4.472;2022-12-07T16:31:19;-5948.50;;;14.89
74449;BMP280;62878;51.026;4.472;2022-12-07T16:33:45;-5948.56;;;14.89
74449;BMP280;62878;51.026;4.472;2022-12-07T16:36:13;-5947.72;;;14.84
74449;BMP280;62878;51.026;4.472;2022-12-07T16:38:42;-5949.00;;;14.92
74449;BMP280;62878;51.026;4.472;2022-12-07T16:41:10;-5949.41;;;14.94